createdAt,value
2019-03-13T00:00:24.682Z,70.77
2019-03-13T00:02:56.420Z,69.94
2019-03-13T00:05:26.498Z,70.25
2019-03-13T00:07:56.681Z,69.73
2019-03-13T00:10:32.362Z,70.23
2019-03-13T00:13:01.309Z,70.10
2019-03-13T00:15:32.413Z,70.54
2019-03-13T00:18:03.719Z,70.81
2019-03-13T00:20:34.136Z,70.28
2019-03-13T00:23:04.292Z,71.22
2019-03-13T00:25:37.591Z,70.91
2019-03-13T00:28:08.691Z,70.62
2019-03-13T00:30:38.885Z,70.85
2019-03-13T00:33:08.971Z,70.21
2019-03-13T00:35:39.150Z,69.72
2019-03-13T00:38:12.236Z,69.71
2019-03-13T00:40:42.349Z,69.21
2019-03-13T00:43:12.487Z,69.04
2019-03-13T00:45:42.829Z,69.04
2019-03-13T00:48:12.906Z,69.09
2019-03-13T00:50:49.131Z,69.26
2019-03-13T00:53:19.231Z,69.23
2019-03-13T00:55:50.877Z,68.82
2019-03-13T00:58:25.308Z,68.54
2019-03-13T01:01:03.499Z,69.39
2019-03-13T01:03:48.595Z,68.78
2019-03-13T01:06:33.995Z,69.14
2019-03-13T01:09:07.374Z,68.81
2019-03-13T01:11:39.528Z,68.67
2019-03-13T01:14:12.747Z,67.77
2019-03-13T01:16:44.798Z,68.28
2019-03-13T01:19:15.381Z,67.85
2019-03-13T01:21:46.946Z,67.15
2019-03-13T01:24:20.461Z,66.64
2019-03-13T01:26:50.598Z,66.26
2019-03-13T01:29:23.823Z,66.18
2019-03-13T01:32:11.553Z,66.23
2019-03-13T01:34:55.905Z,65.62
2019-03-13T01:37:26.351Z,64.85
2019-03-13T01:39:56.632Z,64.62
2019-03-13T01:42:26.755Z,64.43
2019-03-13T01:44:56.918Z,64.17
2019-03-13T01:47:27.035Z,63.66
2019-03-13T01:49:57.215Z,63.53
2019-03-13T01:52:27.347Z,63.38
2019-03-13T01:54:57.491Z,63.63
2019-03-13T01:57:27.694Z,63.60
2019-03-13T01:59:58.067Z,63.33
2019-03-13T02:02:28.403Z,63.38
2019-03-13T02:04:58.931Z,63.38
2019-03-13T02:07:29.111Z,63.14
2019-03-13T02:09:59.535Z,62.96
2019-03-13T02:12:29.678Z,62.71
2019-03-13T02:15:00.079Z,62.80
2019-03-13T02:17:30.506Z,62.79
2019-03-13T02:20:00.744Z,62.94
2019-03-13T02:22:31.033Z,62.43
2019-03-13T02:25:01.302Z,62.85
2019-03-13T02:27:31.502Z,62.59
2019-03-13T02:30:01.752Z,62.31
2019-03-13T02:32:32.041Z,62.01
2019-03-13T02:35:02.320Z,62.10
2019-03-13T02:37:34.222Z,62.21
2019-03-13T02:40:05.315Z,62.19
2019-03-13T02:42:38.689Z,62.16
2019-03-13T02:45:09.701Z,62.38
2019-03-13T02:47:39.892Z,62.50
2019-03-13T02:50:11.954Z,62.82
2019-03-13T02:52:42.157Z,63.01
2019-03-13T02:55:12.480Z,63.01
2019-03-13T02:57:42.721Z,63.12
2019-03-13T03:00:13.855Z,63.50
2019-03-13T03:02:50.128Z,63.78
2019-03-13T03:05:20.439Z,63.98
2019-03-13T03:07:50.649Z,64.57
2019-03-13T03:10:21.173Z,64.74
2019-03-13T03:12:51.372Z,65.06
2019-03-13T03:15:24.559Z,65.10
2019-03-13T03:17:54.961Z,64.93
2019-03-13T03:20:25.122Z,65.02
2019-03-13T03:22:55.320Z,65.31
2019-03-13T03:25:29.484Z,65.05
2019-03-13T03:27:59.656Z,65.14
2019-03-13T03:30:29.909Z,65.30
2019-03-13T03:33:03.237Z,65.12
2019-03-13T03:35:33.366Z,64.74
2019-03-13T03:38:04.071Z,64.63
2019-03-13T03:40:34.235Z,64.31
2019-03-13T03:43:04.442Z,63.93
2019-03-13T03:45:48.734Z,63.76
2019-03-13T03:48:19.408Z,63.97
2019-03-13T03:50:55.736Z,63.55
2019-03-13T03:53:26.083Z,63.45
2019-03-13T03:55:56.283Z,63.17
2019-03-13T03:58:29.188Z,62.81
2019-03-13T04:00:59.486Z,62.82
2019-03-13T04:03:38.444Z,62.69
2019-03-13T04:06:18.860Z,62.79
2019-03-13T04:08:48.985Z,62.70
2019-03-13T04:11:19.138Z,63.02
2019-03-13T04:13:49.369Z,63.47
2019-03-13T04:16:19.558Z,63.64
2019-03-13T04:18:56.442Z,63.09
2019-03-13T04:21:32.714Z,62.84
2019-03-13T04:24:03.178Z,62.47
2019-03-13T04:26:33.319Z,62.38
2019-03-13T04:29:05.939Z,62.35
2019-03-13T04:31:38.175Z,62.23
2019-03-13T04:34:08.375Z,62.15
2019-03-13T04:36:38.514Z,62.20
2019-03-13T04:39:08.645Z,62.33
2019-03-13T04:41:38.832Z,62.36
2019-03-13T04:44:16.313Z,62.62
2019-03-13T04:46:54.461Z,62.82
2019-03-13T04:49:24.790Z,63.00
2019-03-13T04:51:54.941Z,62.60
2019-03-13T04:54:25.136Z,62.58
2019-03-13T04:56:55.295Z,62.23
2019-03-13T04:59:31.331Z,62.18
2019-03-13T05:02:01.855Z,62.04
2019-03-13T05:04:32.161Z,61.83
2019-03-13T05:07:02.258Z,61.88
2019-03-13T05:09:37.517Z,61.88
2019-03-13T05:12:09.987Z,61.57
2019-03-13T05:14:40.120Z,61.09
2019-03-13T05:17:15.325Z,60.93
2019-03-13T05:19:45.520Z,60.50
2019-03-13T05:22:15.791Z,60.15
2019-03-13T05:24:46.024Z,59.79
2019-03-13T05:27:16.135Z,59.74
2019-03-13T05:29:50.680Z,60.12
2019-03-13T05:32:25.259Z,59.52
2019-03-13T05:34:58.968Z,59.87
2019-03-13T05:37:29.341Z,59.57
2019-03-13T05:40:02.206Z,59.13
2019-03-13T05:42:37.211Z,59.33
2019-03-13T05:45:09.381Z,59.19
2019-03-13T05:47:39.635Z,59.27
2019-03-13T05:50:09.823Z,59.26
2019-03-13T05:52:39.945Z,59.37
2019-03-13T05:55:12.122Z,59.25
2019-03-13T05:57:58.569Z,59.33
2019-03-13T06:00:30.139Z,59.39
2019-03-13T06:03:00.359Z,59.41
2019-03-13T06:05:30.740Z,59.20
2019-03-13T06:08:00.952Z,59.42
2019-03-13T06:10:31.127Z,59.47
2019-03-13T06:13:02.801Z,59.11
2019-03-13T06:15:32.963Z,59.57
2019-03-13T06:18:03.267Z,59.27
2019-03-13T06:20:35.567Z,59.02
2019-03-13T06:23:05.644Z,59.12
2019-03-13T06:25:36.021Z,58.89
2019-03-13T06:28:07.290Z,59.42
2019-03-13T06:30:37.586Z,59.14
2019-03-13T06:33:07.832Z,59.25
2019-03-13T06:35:38.002Z,59.08
2019-03-13T06:38:08.230Z,59.40
2019-03-13T06:40:41.221Z,59.47
2019-03-13T06:43:11.510Z,59.56
2019-03-13T06:45:49.919Z,59.25
2019-03-13T06:48:20.610Z,59.19
2019-03-13T06:50:51.350Z,59.06
2019-03-13T06:53:21.568Z,58.79
2019-03-13T06:55:51.794Z,58.61
2019-03-13T06:58:35.986Z,58.80
2019-03-13T07:01:25.127Z,59.08
2019-03-13T07:04:12.684Z,58.90
2019-03-13T07:07:03.833Z,58.92
2019-03-13T07:09:44.429Z,59.13
2019-03-13T07:12:39.710Z,59.30
2019-03-13T07:15:35.977Z,59.89
2019-03-13T07:18:19.219Z,59.55
2019-03-13T07:21:12.232Z,59.51
2019-03-13T07:24:01.411Z,59.68
2019-03-13T07:26:42.898Z,59.59
2019-03-13T07:29:37.724Z,59.98
2019-03-13T07:32:26.820Z,59.54
2019-03-13T07:35:16.585Z,58.84
2019-03-13T07:38:17.706Z,58.68
2019-03-13T07:41:07.106Z,58.78
2019-03-13T07:44:05.416Z,58.56
2019-03-13T07:46:58.642Z,57.98
2019-03-13T07:50:04.817Z,57.77
2019-03-13T07:52:52.971Z,57.41
2019-03-13T07:55:45.813Z,57.60
2019-03-13T07:58:34.926Z,56.80
2019-03-13T08:01:22.983Z,56.62
2019-03-13T08:04:05.052Z,56.89
2019-03-13T08:06:51.696Z,57.10
2019-03-13T08:09:53.260Z,57.33
2019-03-13T08:12:41.799Z,57.70
2019-03-13T08:15:51.061Z,57.62
2019-03-13T08:18:52.467Z,58.44
2019-03-13T08:21:40.350Z,57.60
2019-03-13T08:24:20.183Z,58.25
2019-03-13T08:27:12.354Z,58.29
2019-03-13T08:29:56.207Z,57.65
2019-03-13T08:32:35.739Z,57.15
2019-03-13T08:35:23.299Z,57.53
2019-03-13T08:38:31.629Z,56.78
2019-03-13T08:41:09.916Z,57.15
2019-03-13T08:43:55.339Z,57.71
2019-03-13T08:46:44.773Z,57.82
2019-03-13T08:49:37.519Z,57.92
2019-03-13T08:52:26.994Z,58.64
2019-03-13T08:55:16.976Z,58.01
2019-03-13T08:58:23.321Z,57.81
2019-03-13T09:01:17.679Z,56.90
2019-03-13T09:04:15.571Z,55.65
2019-03-13T09:07:03.515Z,56.65
2019-03-13T09:09:55.644Z,56.93
2019-03-13T09:12:37.312Z,57.55
2019-03-13T09:15:34.113Z,56.51
2019-03-13T09:18:20.127Z,55.55
2019-03-13T09:21:15.268Z,55.85
2019-03-13T09:23:50.898Z,55.65
2019-03-13T09:26:49.524Z,55.36
2019-03-13T09:29:42.215Z,55.80
2019-03-13T09:32:49.748Z,55.93
2019-03-13T09:35:36.256Z,55.92
2019-03-13T09:38:34.395Z,56.11
2019-03-13T09:41:13.725Z,54.90
2019-03-13T09:43:59.892Z,54.97
2019-03-13T09:46:57.514Z,54.25
2019-03-13T09:49:45.622Z,54.49
2019-03-13T09:52:50.165Z,53.42
2019-03-13T09:55:36.744Z,52.72
2019-03-13T09:58:25.459Z,53.31
2019-03-13T10:01:10.001Z,53.75
2019-03-13T10:04:02.164Z,54.01
2019-03-13T10:06:42.404Z,54.79
2019-03-13T10:09:34.509Z,54.96
2019-03-13T10:12:33.235Z,55.58
2019-03-13T10:15:25.477Z,56.00
2019-03-13T10:18:21.249Z,55.66
2019-03-13T10:21:16.456Z,55.61
2019-03-13T10:24:18.697Z,55.39
2019-03-13T10:27:14.037Z,56.09
2019-03-13T10:29:54.369Z,55.52
2019-03-13T10:32:45.123Z,55.67
2019-03-13T10:35:46.757Z,56.41
2019-03-13T10:38:39.032Z,56.81
2019-03-13T10:41:28.234Z,56.69
2019-03-13T10:44:28.872Z,56.71
2019-03-13T10:47:19.259Z,56.16
2019-03-13T10:50:03.454Z,55.86
2019-03-13T10:52:45.862Z,55.46
2019-03-13T10:55:42.969Z,55.46
2019-03-13T10:58:21.776Z,54.78
2019-03-13T11:01:14.712Z,54.14
2019-03-13T11:04:02.004Z,54.46
2019-03-13T11:06:55.328Z,53.77
2019-03-13T11:09:28.499Z,53.00
2019-03-13T11:12:20.678Z,53.55
2019-03-13T11:15:09.785Z,54.19
2019-03-13T11:18:08.292Z,54.43
2019-03-13T11:21:03.642Z,54.59
2019-03-13T11:24:00.833Z,53.92
2019-03-13T11:26:52.755Z,53.34
2019-03-13T11:29:48.084Z,53.57
2019-03-13T11:32:45.705Z,53.23
2019-03-13T11:35:33.948Z,53.72
2019-03-13T11:38:23.110Z,54.35
2019-03-13T11:41:21.318Z,55.44
2019-03-13T11:44:09.592Z,56.87
2019-03-13T11:47:19.092Z,57.75
2019-03-13T11:50:28.356Z,58.51
2019-03-13T11:53:24.242Z,59.37
2019-03-13T11:56:22.644Z,59.64
2019-03-13T11:59:05.931Z,58.86
2019-03-13T12:01:59.650Z,58.31
2019-03-13T12:04:54.719Z,57.97
2019-03-13T12:07:44.197Z,58.30
2019-03-13T12:10:33.824Z,58.52
2019-03-13T12:13:17.204Z,58.52
2019-03-13T12:16:01.247Z,59.39
2019-03-13T12:18:50.618Z,58.33
2019-03-13T12:21:42.782Z,58.73
2019-03-13T12:24:35.031Z,58.82
2019-03-13T12:27:42.862Z,59.38
2019-03-13T12:30:32.509Z,59.09
2019-03-13T12:33:13.063Z,58.90
2019-03-13T12:36:11.964Z,58.31
2019-03-13T12:39:05.652Z,58.46
2019-03-13T12:41:50.537Z,59.10
2019-03-13T12:44:39.697Z,59.49
2019-03-13T12:47:25.104Z,59.30
2019-03-13T12:50:20.226Z,59.58
2019-03-13T12:53:12.529Z,58.51
2019-03-13T12:56:19.705Z,58.63
2019-03-13T12:59:24.035Z,58.48
2019-03-13T13:02:15.617Z,58.53
2019-03-13T13:05:05.559Z,58.40
2019-03-13T13:08:00.676Z,58.73
2019-03-13T13:10:46.744Z,59.15
2019-03-13T13:13:28.704Z,59.34
2019-03-13T13:16:25.914Z,58.76
2019-03-13T13:18:56.791Z,58.89
2019-03-13T13:21:27.118Z,58.40
2019-03-13T13:23:59.729Z,58.97
2019-03-13T13:26:30.619Z,58.01
2019-03-13T13:29:04.810Z,58.04
2019-03-13T13:31:38.171Z,57.99
2019-03-13T13:34:08.441Z,58.70
2019-03-13T13:36:38.667Z,58.68
2019-03-13T13:39:09.529Z,59.13
2019-03-13T13:41:41.667Z,59.12
2019-03-13T13:44:12.013Z,59.47
2019-03-13T13:46:44.560Z,59.43
2019-03-13T13:49:15.321Z,59.77
2019-03-13T13:51:50.827Z,58.93
2019-03-13T13:57:03.783Z,60.79
2019-03-13T13:59:36.416Z,62.54
2019-03-13T14:02:06.635Z,62.96
2019-03-13T14:04:39.763Z,63.75
2019-03-13T14:07:09.941Z,64.24
2019-03-13T14:09:40.038Z,63.85
2019-03-13T14:12:11.179Z,65.40
2019-03-13T14:14:41.327Z,66.21
2019-03-13T14:17:11.449Z,68.72
2019-03-13T14:19:44.531Z,68.35
2019-03-13T14:22:14.671Z,68.14
2019-03-13T14:24:44.874Z,67.46
2019-03-13T14:27:15.273Z,68.64
2019-03-13T14:29:48.113Z,69.19
2019-03-13T14:32:18.745Z,69.71
2019-03-13T14:34:51.357Z,69.99
2019-03-13T14:37:23.263Z,69.97
2019-03-13T14:39:53.426Z,70.14
2019-03-13T14:42:24.146Z,70.95
2019-03-13T14:44:54.358Z,71.15
2019-03-13T14:47:27.002Z,71.44
2019-03-13T14:49:57.104Z,71.39
2019-03-13T14:52:27.284Z,70.84
2019-03-13T14:54:57.420Z,71.35
2019-03-13T14:57:27.586Z,71.01
2019-03-13T14:59:57.697Z,71.46
2019-03-13T15:02:27.858Z,72.19
2019-03-13T15:04:59.977Z,71.96
2019-03-13T15:07:30.003Z,71.28
2019-03-13T15:10:00.404Z,71.89
2019-03-13T15:12:34.784Z,71.34
2019-03-13T15:15:05.188Z,71.78
2019-03-13T15:17:35.368Z,71.92
2019-03-13T15:20:06.508Z,70.72
2019-03-13T15:22:36.714Z,70.69
2019-03-13T15:25:07.498Z,70.79
2019-03-13T15:27:37.618Z,70.90
2019-03-13T15:30:14.106Z,71.14
2019-03-13T15:32:44.244Z,70.71
2019-03-13T15:35:14.474Z,70.59
2019-03-13T15:37:46.251Z,70.17
2019-03-13T15:40:17.942Z,69.90
2019-03-13T15:42:48.686Z,68.84
2019-03-13T15:45:19.716Z,69.64
2019-03-13T15:47:49.964Z,69.52
2019-03-13T15:50:20.512Z,68.80
2019-03-13T15:52:50.699Z,69.09
2019-03-13T15:55:23.996Z,69.11
2019-03-13T15:57:54.241Z,69.14
2019-03-13T16:00:25.084Z,69.33
2019-03-13T16:02:56.034Z,68.78
2019-03-13T16:05:27.305Z,68.96
2019-03-13T16:07:57.466Z,69.34
2019-03-13T16:10:27.744Z,69.39
2019-03-13T16:13:00.698Z,69.86
2019-03-13T16:15:32.299Z,68.99
2019-03-13T16:18:02.632Z,68.92
2019-03-13T16:20:32.975Z,69.08
2019-03-13T16:23:04.680Z,68.73
2019-03-13T16:25:37.427Z,69.77
2019-03-13T16:28:08.036Z,68.84
2019-03-13T16:30:40.797Z,68.98
2019-03-13T16:33:10.956Z,69.24
2019-03-13T16:35:42.362Z,69.06
2019-03-13T16:38:12.602Z,69.38
2019-03-13T16:40:43.024Z,71.31
2019-03-13T16:43:13.175Z,71.45
2019-03-13T16:45:43.439Z,72.16
2019-03-13T16:48:16.297Z,73.10
2019-03-13T16:50:47.954Z,73.38
2019-03-13T16:53:20.520Z,73.80
2019-03-13T16:55:50.621Z,74.43
2019-03-13T16:58:26.452Z,74.85
2019-03-13T17:00:56.359Z,74.76
2019-03-13T17:03:28.787Z,75.38
2019-03-13T17:06:00.986Z,75.94
2019-03-13T17:08:31.199Z,77.13
2019-03-13T17:11:01.515Z,77.68
2019-03-13T17:13:31.721Z,76.71
2019-03-13T17:16:05.283Z,76.77
2019-03-13T17:18:35.605Z,77.40
2019-03-13T17:21:06.660Z,77.05
2019-03-13T17:23:37.795Z,77.36
2019-03-13T17:26:08.113Z,77.52
2019-03-13T17:28:38.308Z,77.52
2019-03-13T17:31:08.435Z,78.03
2019-03-13T17:33:38.573Z,77.47
2019-03-13T17:36:08.731Z,77.20
2019-03-13T17:38:38.995Z,77.01
2019-03-13T17:41:09.169Z,76.78
2019-03-13T17:43:39.832Z,77.16
2019-03-13T17:46:12.595Z,77.20
2019-03-13T17:48:42.774Z,77.04
2019-03-13T17:51:12.898Z,77.50
2019-03-13T17:53:45.233Z,77.31
2019-03-13T17:56:16.343Z,77.87
2019-03-13T17:58:46.533Z,77.11
2019-03-13T18:01:16.649Z,77.31
2019-03-13T18:03:49.827Z,77.65
2019-03-13T18:06:19.432Z,77.92
2019-03-13T18:08:50.521Z,78.02
2019-03-13T18:11:20.693Z,78.27
2019-03-13T18:13:50.882Z,78.21
2019-03-13T18:16:22.113Z,77.99
2019-03-13T18:18:52.224Z,78.72
2019-03-13T18:21:23.531Z,77.91
2019-03-13T18:23:53.752Z,78.28
2019-03-13T18:26:24.489Z,77.77
2019-03-13T18:28:54.589Z,78.34
2019-03-13T18:31:24.831Z,79.12
2019-03-13T18:33:54.935Z,79.43
2019-03-13T18:36:25.331Z,79.03
2019-03-13T18:38:55.522Z,79.41
2019-03-13T18:41:27.783Z,79.77
2019-03-13T18:43:57.923Z,78.77
2019-03-13T18:46:28.437Z,79.53
2019-03-13T18:48:58.515Z,78.60
2019-03-13T18:51:28.792Z,79.13
2019-03-13T18:53:59.025Z,79.40
2019-03-13T18:56:29.384Z,79.24
2019-03-13T18:58:59.480Z,79.00
2019-03-13T19:01:29.647Z,79.59
2019-03-13T19:04:00.043Z,79.16
2019-03-13T19:06:30.234Z,79.20
2019-03-13T19:09:00.323Z,80.00
2019-03-13T19:11:35.002Z,80.50
2019-03-13T19:14:05.110Z,80.67
2019-03-13T19:16:35.398Z,80.93
2019-03-13T19:19:05.538Z,80.99
2019-03-13T19:21:36.991Z,81.38
2019-03-13T19:24:08.473Z,80.55
2019-03-13T19:26:38.982Z,80.84
2019-03-13T19:29:09.074Z,81.51
2019-03-13T19:31:39.268Z,80.46
2019-03-13T19:34:11.001Z,80.64
2019-03-13T19:36:41.236Z,80.40
2019-03-13T19:39:11.362Z,80.00
2019-03-13T19:41:42.276Z,78.82
2019-03-13T19:44:14.440Z,79.39
2019-03-13T19:46:44.383Z,79.02
2019-03-13T19:49:17.744Z,79.27
2019-03-13T19:51:48.042Z,78.68
2019-03-13T19:54:22.382Z,78.76
2019-03-13T19:56:52.597Z,79.03
2019-03-13T19:59:24.916Z,78.44
2019-03-13T20:01:57.291Z,78.59
2019-03-13T20:04:30.717Z,78.66
2019-03-13T20:07:00.965Z,78.70
2019-03-13T20:09:31.300Z,78.01
2019-03-13T20:12:01.508Z,78.52
2019-03-13T20:14:31.930Z,78.58
2019-03-13T20:17:02.339Z,78.50
2019-03-13T20:19:34.980Z,77.96
2019-03-13T20:22:06.559Z,78.44
2019-03-13T20:24:38.821Z,79.24
2019-03-13T20:27:08.728Z,78.15
2019-03-13T20:29:38.823Z,78.29
2019-03-13T20:32:09.083Z,78.38
2019-03-13T20:34:39.210Z,78.34
2019-03-13T20:37:11.947Z,77.89
2019-03-13T20:39:43.714Z,78.91
2019-03-13T20:42:13.907Z,77.99
2019-03-13T20:44:44.150Z,78.01
2019-03-13T20:47:16.856Z,78.26
2019-03-13T20:49:50.135Z,77.99
2019-03-13T20:52:20.375Z,78.11
2019-03-13T20:54:50.677Z,78.09
2019-03-13T20:57:22.714Z,78.25
2019-03-13T20:59:53.075Z,78.65
2019-03-13T21:02:23.680Z,78.84
2019-03-13T21:04:53.801Z,78.74
2019-03-13T21:07:24.126Z,78.81
2019-03-13T21:09:55.556Z,78.38
2019-03-13T21:12:25.887Z,78.56
2019-03-13T21:14:56.389Z,78.14
2019-03-13T21:17:26.679Z,78.33
2019-03-13T21:19:56.877Z,78.54
2019-03-13T21:22:27.211Z,78.10
2019-03-13T21:24:57.423Z,78.37
2019-03-13T21:27:27.850Z,78.68
2019-03-13T21:29:58.080Z,78.85
2019-03-13T21:32:28.262Z,78.87
2019-03-13T21:35:00.697Z,78.74
2019-03-13T21:37:30.957Z,78.95
2019-03-13T21:40:01.275Z,78.91
2019-03-13T21:42:35.381Z,78.72
2019-03-13T21:45:06.585Z,79.09
2019-03-13T21:47:38.651Z,79.45
2019-03-13T21:50:12.186Z,79.42
2019-03-13T21:52:42.581Z,78.85
2019-03-13T21:55:13.047Z,78.68
2019-03-13T21:57:43.398Z,78.72
2019-03-13T22:00:20.065Z,78.70
2019-03-13T22:02:50.411Z,78.21
2019-03-13T22:05:25.741Z,78.24
2019-03-13T22:07:52.467Z,78.17
2019-03-13T22:10:22.649Z,78.19
2019-03-13T22:12:53.352Z,78.27
2019-03-13T22:15:25.801Z,78.80
2019-03-13T22:17:57.422Z,79.46
2019-03-13T22:20:27.619Z,80.16
2019-03-13T22:22:57.728Z,80.81
2019-03-13T22:25:27.845Z,82.05
2019-03-13T22:28:00.774Z,82.88
2019-03-13T22:30:30.956Z,83.48
2019-03-13T22:33:01.600Z,83.93
2019-03-13T22:35:31.713Z,84.39
2019-03-13T22:38:01.871Z,84.43
2019-03-13T22:40:33.103Z,84.80
2019-03-13T22:43:03.303Z,85.01
2019-03-13T22:45:33.585Z,84.78
2019-03-13T22:48:03.817Z,84.46
2019-03-13T22:50:33.905Z,84.42
2019-03-13T22:53:06.231Z,84.39
2019-03-13T22:55:39.985Z,85.38
2019-03-13T22:58:09.793Z,85.87
2019-03-13T23:00:56.264Z,85.92
2019-03-13T23:03:29.987Z,86.36
2019-03-13T23:06:00.691Z,86.15
2019-03-13T23:08:31.237Z,85.75
2019-03-13T23:11:02.618Z,85.33
2019-03-13T23:13:32.916Z,85.59
2019-03-13T23:16:04.822Z,85.31
2019-03-13T23:18:35.237Z,85.14
2019-03-13T23:21:05.801Z,84.87
2019-03-13T23:23:35.958Z,84.32
2019-03-13T23:26:07.154Z,83.96
2019-03-13T23:28:37.583Z,84.07
2019-03-13T23:31:10.848Z,84.24
2019-03-13T23:33:41.292Z,83.66
2019-03-13T23:36:11.825Z,83.79
2019-03-13T23:38:43.372Z,83.83
2019-03-13T23:41:16.588Z,83.93
2019-03-13T23:43:46.838Z,83.56
2019-03-13T23:46:17.132Z,83.16
2019-03-13T23:48:47.362Z,82.85
2019-03-13T23:51:18.352Z,83.21
2019-03-13T23:53:48.541Z,83.43
2019-03-13T23:56:18.961Z,83.53
2019-03-13T23:58:49.232Z,83.42
